Speegleville, Texas
Current Conditions -  °F | °C
As of 10:51 PM on Friday 24 Oct 2014 (Local Time) from KACT Reporting Station
Clear Clear  
Wind Chill: 21°   Ceiling: Unl
Heat Index: 21°   Visibility: 10mi
Dew Point: 16°   Wind: 9mph
Humidity: 71%   Direction: 170°S
Pressure: 30.12"   Gusts: NA
Location:  31.5356°N, 97.1921°W
Report Text: KACT 250351Z 17008KT 10SM CLR 21/16 A3012 RMK AO2 SLP194 T02110156
Loading
Personal Weather Stations






























Interactive Weather Map
Tropical Storm Tracking
New forecast layout! Learn more

10-Day Weather Forecast

Advertisements
Track Severe Weather on mobile